Terminal Aerodrome Forecast
Issued by NWS Duluth, MN

Home | Current Version | Previous Version | Text Only | Print | Product List | Glossary On
Versions: 1 2 3 4 5 6 7 8 9 10 11 12 13 14 15 16 17 18 19 20 21 22 23 24 25 26 27 28 29 30 31 32 33 34 35 36
000
FTUS43 KDLH 210900 AAB
TAFINL
TAF AMD
KINL 210900Z 2109/2206 33008KT P6SM BKN009
     FM211200 33008KT P6SM BKN015
     FM211700 33007KT P6SM SCT030
     FM220200 30002KT P6SM SKC=

USA.gov is the U.S. government's official web portal to all federal, state and local government web resources and services.